Time;durP1;ratioP1;P1;durP2;ratioP2;P2;SDS_P1;SDS_P2;PMS_P1;PMS_P2;Temp;Humidity;BMP_temperature;BMP_pressure;BME280_temperature;BME280_humidity;BME280_pressure;Samples;Min_cycle;Max_cycle;Signal;HPM_P1;HPM_P2
2022/08/20 00:00:51;;;;;;;4.72;4.00;;;;;;;19.53;55.68;100373.50;5083020;28;20039;-65
2022/08/20 00:03:26;;;;;;;4.47;3.67;;;;;;;19.56;55.59;100372.25;5075955;28;20129;-66
2022/08/20 00:06:07;;;;;;;5.28;3.15;;;;;;;19.58;55.51;100370.16;5087415;28;20312;-66
2022/08/20 00:08:32;;;;;;;5.03;3.17;;;;;;;19.58;55.74;100365.63;5074370;28;20362;-66
2022/08/20 00:10:59;;;;;;;4.60;3.15;;;;;;;19.63;55.62;100360.44;5068645;28;20133;-66
2022/08/20 00:13:31;;;;;;;4.57;3.50;;;;;;;19.66;56.52;100360.03;5068054;28;20493;-67
2022/08/20 00:15:57;;;;;;;5.25;4.30;;;;;;;19.65;56.06;100355.69;5074444;28;20041;-67
2022/08/20 00:18:23;;;;;;;5.53;4.70;;;;;;;19.63;56.70;100357.75;5067884;28;20055;-67
2022/08/20 00:20:51;;;;;;;5.68;4.40;;;;;;;19.61;56.50;100359.81;5079134;28;20036;-67
2022/08/20 00:23:18;;;;;;;5.07;4.40;;;;;;;19.62;56.57;100357.97;5068519;28;20294;-66
2022/08/20 00:25:44;;;;;;;4.43;4.00;;;;;;;19.62;56.62;100363.34;5073092;28;20120;-66
2022/08/20 00:28:10;;;;;;;6.07;4.90;;;;;;;19.58;57.29;100370.16;5080798;28;20609;-67
2022/08/20 00:30:36;;;;;;;5.75;4.68;;;;;;;19.52;57.25;100372.69;5072923;28;20032;-66
2022/08/20 00:33:05;;;;;;;5.00;4.13;;;;;;;19.51;57.16;100367.53;5068866;28;20128;-67
2022/08/20 00:35:34;;;;;;;4.45;3.80;;;;;;;19.48;57.01;100370.63;5080096;28;20038;-66
2022/08/20 00:37:59;;;;;;;5.43;3.30;;;;;;;19.46;57.07;100378.88;5088049;28;20400;-67
2022/08/20 00:40:28;;;;;;;4.28;3.22;;;;;;;19.46;57.52;100370.84;5078368;28;20032;-67
2022/08/20 00:42:57;;;;;;;5.28;3.30;;;;;;;19.45;57.57;100379.09;5082297;28;20145;-67
2022/08/20 00:45:26;;;;;;;3.97;3.30;;;;;;;19.41;57.82;100376.03;5080855;28;20032;-66
2022/08/20 00:47:54;;;;;;;3.92;3.08;;;;;;;19.42;57.94;100383.03;5087788;28;20515;-67
2022/08/20 00:50:31;;;;;;;4.50;3.25;;;;;;;19.42;58.02;100385.69;5084669;28;20056;-67
2022/08/20 00:52:57;;;;;;;5.05;3.90;;;;;;;19.39;58.44;100386.13;5085570;28;20480;-67
2022/08/20 00:55:24;;;;;;;5.20;3.70;;;;;;;19.38;58.61;100383.66;5079383;28;20044;-67
2022/08/20 00:57:53;;;;;;;4.22;3.45;;;;;;;19.39;58.47;100388.00;5071098;28;20131;-66
2022/08/20 01:00:23;;;;;;;4.35;3.63;;;;;;;19.40;58.76;100390.47;5085574;28;20036;-67
2022/08/20 01:02:49;;;;;;;5.38;3.78;;;;;;;19.42;58.80;100384.88;5086883;28;20040;-66
2022/08/20 01:05:15;;;;;;;6.47;4.10;;;;;;;19.42;58.59;100392.94;5071924;28;20078;-67
2022/08/20 01:07:40;;;;;;;5.45;4.22;;;;;;;19.42;58.76;100390.25;5067671;28;20028;-67
2022/08/20 01:10:13;;;;;;;8.55;4.90;;;;;;;19.42;58.83;100399.09;5084856;28;20036;-67
2022/08/20 01:12:41;;;;;;;5.45;4.60;;;;;;;19.42;58.56;100393.75;5077344;28;20029;-66
2022/08/20 01:15:12;;;;;;;5.78;4.50;;;;;;;19.40;58.24;100397.69;5071603;28;20373;-67
2022/08/20 01:17:40;;;;;;;;;;;;;;;19.35;59.01;100390.28;5084061;28;20127;-66
2022/08/20 01:20:14;;;;;;;4.97;3.95;;;;;;;19.31;58.94;100400.63;5069631;28;20296;-68
2022/08/20 01:25:38;;;;;;;5.82;4.80;;;;;;;19.18;59.30;100402.50;5084229;28;20081;-66
2022/08/20 01:28:03;;;;;;;4.93;4.10;;;;;;;19.15;58.93;100400.25;5079178;28;20101;-66
2022/08/20 01:30:31;;;;;;;5.35;3.72;;;;;;;19.15;58.86;100401.09;5086964;28;20498;-66
2022/08/20 01:32:56;;;;;;;3.95;3.45;;;;;;;19.18;59.06;100407.88;5077235;28;20040;-67
2022/08/20 01:35:23;;;;;;;4.03;2.85;;;;;;;19.23;59.00;100405.38;5084809;28;20567;-66
2022/08/20 01:37:48;;;;;;;5.47;3.40;;;;;;;19.29;58.92;100415.28;5068291;28;20027;-66
2022/08/20 01:40:19;;;;;;;5.20;3.67;;;;;;;19.31;58.86;100405.97;5069145;28;20060;-67
2022/08/20 01:42:48;;;;;;;3.97;3.23;;;;;;;19.34;59.01;100403.91;5073200;28;20044;-66
2022/08/20 01:45:14;;;;;;;4.95;4.30;;;;;;;19.27;59.84;100406.63;5058968;28;20060;-66
2022/08/20 01:47:39;;;;;;;6.50;4.43;;;;;;;19.23;59.33;100405.38;5081281;28;20043;-67
2022/08/20 01:50:19;;;;;;;4.20;3.47;;;;;;;19.23;59.38;100408.88;5077216;28;20041;-66
2022/08/20 01:52:54;;;;;;;5.43;4.35;;;;;;;19.24;60.10;100423.13;5081436;28;20046;-66
2022/08/20 01:55:19;;;;;;;4.47;3.95;;;;;;;19.26;59.81;100418.38;5086809;28;20544;-67
2022/08/20 01:57:47;;;;;;;4.40;3.90;;;;;;;19.33;59.59;100421.88;5073262;28;20040;-67
2022/08/20 02:00:15;;;;;;;6.30;5.38;;;;;;;19.34;60.27;100420.00;5083998;28;20028;-67
2022/08/20 02:02:40;;;;;;;4.88;4.10;;;;;;;19.33;59.96;100415.66;5080738;28;20032;-67
2022/08/20 02:05:06;;;;;;;4.75;3.90;;;;;;;19.34;59.64;100412.78;5069141;28;20051;-66
2022/08/20 02:07:32;;;;;;;4.63;3.80;;;;;;;19.38;59.64;100415.84;5071140;28;20025;-67
2022/08/20 02:09:58;;;;;;;4.55;3.58;;;;;;;19.39;60.28;100418.31;5076055;28;20037;-67
2022/08/20 02:12:24;;;;;;;5.18;3.92;;;;;;;19.40;60.20;100424.50;5075769;28;20515;-67
2022/08/20 02:14:52;;;;;;;4.22;3.67;;;;;;;19.40;60.13;100425.34;5081866;28;20032;-67
2022/08/20 02:17:21;;;;;;;5.03;4.28;;;;;;;19.42;60.45;100423.25;5084955;28;20037;-66
2022/08/20 02:19:51;;;;;;;5.88;4.18;;;;;;;19.40;60.38;100430.72;5080223;28;20044;-67
2022/08/20 02:22:34;;;;;;;5.28;4.40;;;;;;;19.48;60.04;100429.63;5089702;28;20040;-67
2022/08/20 02:25:00;;;;;;;4.75;4.10;;;;;;;19.55;60.52;100435.78;5081136;28;20040;-67
2022/08/20 02:27:25;;;;;;;4.43;3.63;;;;;;;19.66;60.21;100437.81;5090710;28;20028;-67
2022/08/20 02:29:51;;;;;;;5.22;3.88;;;;;;;19.74;60.13;100442.13;5082290;28;20032;-67
2022/08/20 02:32:17;;;;;;;4.05;3.22;;;;;;;19.79;60.12;100441.50;5088481;28;20119;-68
2022/08/20 02:34:43;;;;;;;3.70;2.80;;;;;;;19.95;60.18;100441.00;5079727;28;20841;-67
2022/08/20 02:37:09;;;;;;;3.40;2.72;;;;;;;19.95;60.11;100432.94;5081682;28;20101;-67
2022/08/20 02:39:35;;;;;;;5.20;3.55;;;;;;;20.02;60.09;100431.03;5088369;28;20039;-67
2022/08/20 02:42:04;;;;;;;4.75;3.65;;;;;;;20.07;60.11;100419.63;5087046;28;20412;-67
2022/08/20 02:44:29;;;;;;;4.45;3.53;;;;;;;20.14;59.76;100437.34;5075345;28;20404;-67
2022/08/20 02:46:55;;;;;;;3.85;3.03;;;;;;;20.19;59.47;100430.50;5082022;28;20048;-67
2022/08/20 02:49:20;;;;;;;3.63;2.90;;;;;;;20.25;59.45;100437.69;5076823;28;20032;-67
2022/08/20 02:51:46;;;;;;;3.78;2.95;;;;;;;20.31;59.17;100434.16;5085296;28;20039;-67
2022/08/20 02:54:12;;;;;;;3.97;3.00;;;;;;;20.34;59.33;100431.84;5086944;28;20090;-67
2022/08/20 02:56:38;;;;;;;4.82;3.85;;;;;;;20.33;59.93;100434.72;5090340;28;20036;-67
2022/08/20 02:59:04;;;;;;;4.43;3.60;;;;;;;20.33;59.63;100437.41;5079159;28;20039;-67
2022/08/20 03:01:30;;;;;;;4.20;3.60;;;;;;;20.31;60.18;100432.28;5084654;28;20028;-67
2022/08/20 03:03:56;;;;;;;4.03;3.40;;;;;;;20.31;59.79;100429.59;5075849;28;20040;-67
2022/08/20 03:06:22;;;;;;;3.60;3.10;;;;;;;20.35;59.75;100440.69;5095830;28;22391;-67
2022/08/20 03:08:48;;;;;;;3.83;3.03;;;;;;;20.40;59.52;100434.69;5096818;28;20039;-67
2022/08/20 03:11:13;;;;;;;4.32;3.10;;;;;;;20.40;59.89;100435.50;5067087;28;20028;-67
2022/08/20 03:13:39;;;;;;;4.03;3.10;;;;;;;20.39;59.61;100436.56;5084512;28;20046;-67
2022/08/20 03:16:05;;;;;;;3.78;2.95;;;;;;;20.41;59.78;100437.16;5089986;28;20328;-67
2022/08/20 03:18:41;;;;;;;3.58;2.60;;;;;;;20.47;59.41;100444.31;5090038;28;20063;-67
2022/08/20 03:21:07;;;;;;;3.30;2.70;;;;;;;20.46;59.97;100439.19;5085345;28;20124;-67
2022/08/20 03:23:34;;;;;;;3.47;2.90;;;;;;;20.44;60.03;100434.03;5078220;28;20029;-67
2022/08/20 03:25:59;;;;;;;3.75;3.17;;;;;;;20.44;60.36;100436.72;5078742;28;20439;-67
2022/08/20 03:28:26;;;;;;;3.20;2.55;;;;;;;20.44;60.04;100439.41;5076137;28;20036;-67
2022/08/20 03:30:52;;;;;;;3.10;2.50;;;;;;;20.47;60.18;100438.13;5076185;28;20052;-67
2022/08/20 03:33:19;;;;;;;3.97;3.05;;;;;;;20.50;60.11;100441.22;5081173;28;20043;-67
2022/08/20 03:35:44;;;;;;;5.75;2.97;;;;;;;20.54;60.03;100442.41;5079346;28;20067;-67
2022/08/20 03:38:12;;;;;;;3.72;2.83;;;;;;;20.57;60.12;100444.72;5074657;28;20751;-67
2022/08/20 03:40:37;;;;;;;2.95;2.53;;;;;;;20.61;60.14;100444.25;5082044;28;20063;-67
2022/08/20 03:43:05;;;;;;;2.90;2.50;;;;;;;20.63;59.98;100442.19;5083646;28;20055;-64
2022/08/20 03:45:31;;;;;;;4.00;2.70;;;;;;;20.62;59.88;100430.63;5088880;28;20451;-67
2022/08/20 03:48:00;;;;;;;3.05;2.40;;;;;;;20.65;59.59;100429.34;5079308;28;20085;-67
2022/08/20 03:50:29;;;;;;;4.03;2.60;;;;;;;20.66;59.81;100434.47;5080789;28;20036;-67
2022/08/20 03:52:56;;;;;;;4.65;2.65;;;;;;;20.68;59.53;100434.28;5089356;28;20058;-67
2022/08/20 03:55:23;;;;;;;4.00;3.42;;;;;;;20.65;59.48;100434.72;5079841;28;20036;-67
2022/08/20 03:57:54;;;;;;;3.92;3.00;;;;;;;20.66;59.28;100433.66;5081476;28;20401;-67
2022/08/20 04:00:26;;;;;;;3.67;2.97;;;;;;;20.65;59.37;100438.22;5071742;28;20115;-67
2022/08/20 04:02:51;;;;;;;3.33;2.47;;;;;;;20.65;59.25;100438.22;5071816;28;20036;-67
2022/08/20 04:05:17;;;;;;;3.65;2.50;;;;;;;20.65;59.30;100443.59;5080286;28;20077;-67
2022/08/20 04:07:43;;;;;;;3.33;2.45;;;;;;;20.66;59.24;100436.34;5088542;28;20104;-64
2022/08/20 04:10:10;;;;;;;3.40;2.40;;;;;;;20.68;59.54;100436.97;5085541;28;20507;-65
2022/08/20 04:12:40;;;;;;;3.10;2.38;;;;;;;20.68;59.25;100440.47;5078398;28;20653;-67
2022/08/20 04:15:12;;;;;;;3.58;2.28;;;;;;;20.68;59.52;100437.78;5074240;28;20044;-64
2022/08/20 04:17:42;;;;;;;3.28;2.50;;;;;;;20.66;59.73;100436.34;5074138;28;20414;-66
2022/08/20 04:20:10;;;;;;;2.78;2.20;;;;;;;20.64;59.49;100435.75;5074383;28;20089;-67
2022/08/20 04:22:36;;;;;;;3.53;2.30;;;;;;;20.58;60.26;100437.47;5081839;28;20368;-64
2022/08/20 04:25:07;;;;;;;3.33;2.45;;;;;;;20.56;59.93;100432.28;5078268;28;20032;-64
2022/08/20 04:27:34;;;;;;;2.53;2.15;;;;;;;20.56;60.08;100434.97;5085145;28;20036;-67
2022/08/20 04:30:02;;;;;;;3.10;2.40;;;;;;;20.56;60.09;100440.34;5083960;28;20032;-67
2022/08/20 04:32:28;;;;;;;3.80;2.40;;;;;;;20.55;60.54;100435.19;5081169;28;20484;-67
2022/08/20 04:34:53;;;;;;;3.70;2.50;;;;;;;20.56;60.52;100442.22;5083746;28;20043;-67
2022/08/20 04:37:21;;;;;;;3.70;2.35;;;;;;;20.56;60.75;100440.34;5078171;28;20040;-64
2022/08/20 04:40:52;;;;;;;3.00;2.22;;;;;;;20.53;60.57;100437.28;5076542;28;20373;-67
2022/08/20 04:42:36;;;;;;;2.70;2.20;;;;;;;20.50;61.07;100441.22;5078422;28;20040;-64
2022/08/20 04:45:05;;;;;;;2.90;2.20;;;;;;;20.52;61.47;100430.25;5082231;28;20040;-67
2022/08/20 04:47:30;;;;;;;3.50;2.70;;;;;;;20.52;61.53;100449.88;5075216;28;20078;-67
2022/08/20 04:49:59;;;;;;;2.90;2.30;;;;;;;20.55;61.53;100449.47;5073800;28;20036;-64
2022/08/20 04:52:25;;;;;;;2.80;2.17;;;;;;;20.58;61.60;100451.72;5075762;28;20067;-65
2022/08/20 04:54:50;;;;;;;2.75;2.00;;;;;;;20.62;61.38;100459.31;5083111;28;20147;-67
2022/08/20 04:57:16;;;;;;;2.40;1.83;;;;;;;20.67;61.30;100446.06;5071871;28;20131;-67
2022/08/20 04:59:42;;;;;;;2.28;1.60;;;;;;;20.69;61.66;100446.66;5073887;28;20044;-67
2022/08/20 05:02:08;;;;;;;3.55;2.03;;;;;;;20.73;61.66;100456.75;5076619;28;20036;-68
2022/08/20 05:04:33;;;;;;;4.15;2.38;;;;;;;20.78;61.56;100461.47;5079093;28;20374;-67
2022/08/20 05:06:58;;;;;;;3.90;1.90;;;;;;;20.87;61.49;100470.88;5076073;28;20036;-67
2022/08/20 05:09:24;;;;;;;2.10;1.63;;;;;;;20.95;61.49;100461.72;5081161;28;20289;-67
2022/08/20 05:11:49;;;;;;;4.63;2.08;;;;;;;21.02;61.66;100462.47;5080733;28;20285;-67
2022/08/20 05:14:14;;;;;;;2.60;1.98;;;;;;;21.10;61.40;100461.38;5076297;28;20048;-66
2022/08/20 05:16:39;;;;;;;2.67;2.00;;;;;;;21.17;61.56;100467.50;5084306;28;20111;-67
2022/08/20 05:19:07;;;;;;;3.13;1.92;;;;;;;21.23;61.47;100471.97;5078865;28;20167;-66
2022/08/20 05:21:33;;;;;;;2.83;1.90;;;;;;;21.30;61.79;100471.91;5085430;28;20031;-66
2022/08/20 05:23:58;;;;;;;3.60;1.88;;;;;;;21.37;61.35;100478.84;5081938;28;20028;-66
2022/08/20 05:26:25;;;;;;;2.10;1.60;;;;;;;21.44;61.17;100478.00;5083513;28;20557;-67
2022/08/20 05:28:51;;;;;;;3.60;1.70;;;;;;;21.47;61.50;100477.53;5066030;28;20114;-66
2022/08/20 05:31:16;;;;;;;2.40;1.75;;;;;;;21.47;61.67;100483.75;5083036;28;20090;-66
2022/08/20 05:33:42;;;;;;;2.25;1.60;;;;;;;21.51;61.42;100487.63;5086835;28;20032;-66
2022/08/20 05:36:07;;;;;;;2.25;1.65;;;;;;;21.51;61.59;100484.13;5082354;28;20301;-67
2022/08/20 05:38:35;;;;;;;2.40;1.65;;;;;;;21.52;61.65;100494.66;5079346;28;20135;-66
2022/08/20 05:41:00;;;;;;;2.15;1.58;;;;;;;21.54;61.65;100487.19;5085275;28;20043;-66
2022/08/20 05:43:26;;;;;;;2.80;1.65;;;;;;;21.55;61.60;100499.59;5086891;28;20032;-66
2022/08/20 05:45:51;;;;;;;2.65;1.50;;;;;;;21.57;61.89;100502.88;5081294;28;20114;-66
2022/08/20 05:48:22;;;;;;;2.00;1.38;;;;;;;21.60;61.59;100501.63;5078568;28;20251;-67
2022/08/20 05:50:49;;;;;;;2.10;1.42;;;;;;;21.66;61.70;100511.47;5079544;28;20228;-66
2022/08/20 05:53:16;;;;;;;1.63;1.20;;;;;;;21.68;61.74;100508.56;5083193;28;20507;-66
2022/08/20 05:55:42;;;;;;;2.42;1.30;;;;;;;21.68;61.46;100506.69;5086797;28;20419;-67
2022/08/20 05:58:23;;;;;;;1.90;1.30;;;;;;;21.71;61.77;100513.47;5087823;28;20468;-65
2022/08/20 06:00:50;;;;;;;;;;;;;;;21.73;61.65;100506.81;5091824;28;20042;-64
2022/08/20 06:06:00;;;;;;;2.80;1.10;;;;;;;21.82;61.52;100505.47;5091210;28;20522;-67
2022/08/20 06:08:25;;;;;;;1.63;1.20;;;;;;;21.87;61.64;100512.88;5090180;28;20119;-67
2022/08/20 06:10:50;;;;;;;1.73;1.23;;;;;;;21.93;61.75;100511.13;5087521;28;20277;-65
2022/08/20 06:13:16;;;;;;;2.13;1.20;;;;;;;21.97;62.07;100506.94;5089417;28;20377;-67
2022/08/20 06:15:41;;;;;;;1.92;1.40;;;;;;;22.09;61.78;100498.91;5082782;28;20068;-67
2022/08/20 06:18:09;;;;;;;1.50;1.10;;;;;;;22.18;61.44;100501.06;5088777;28;20089;-68
2022/08/20 06:20:36;;;;;;;1.83;1.30;;;;;;;22.29;61.42;100501.38;5085971;28;20472;-67
2022/08/20 06:23:03;;;;;;;1.83;1.27;;;;;;;22.39;61.24;100499.75;5082281;28;20036;-65
2022/08/20 06:25:28;;;;;;;1.90;1.45;;;;;;;22.54;60.90;100506.56;5082413;28;20028;-67
2022/08/20 06:27:54;;;;;;;2.03;1.23;;;;;;;22.74;60.67;100509.78;5067756;28;20423;-67
2022/08/20 06:30:19;;;;;;;1.85;1.45;;;;;;;23.01;60.23;100506.66;5080537;28;20080;-65
2022/08/20 06:32:44;;;;;;;2.60;1.50;;;;;;;23.39;59.51;100508.03;5087375;28;20515;-65
2022/08/20 06:35:10;;;;;;;2.22;1.48;;;;;;;23.89;58.60;100520.97;5082283;28;20434;-65
2022/08/20 06:37:38;;;;;;;2.03;1.40;;;;;;;24.41;57.96;100517.31;5085423;28;20039;-65
2022/08/20 06:40:09;;;;;;;2.13;1.40;;;;;;;24.66;57.71;100519.69;5080212;28;20127;-65
2022/08/20 06:42:34;;;;;;;2.20;1.20;;;;;;;24.83;57.75;100517.78;5084761;28;20475;-66
2022/08/20 06:45:03;;;;;;;1.88;1.20;;;;;;;24.81;57.66;100511.81;5075176;28;20062;-67
2022/08/20 06:47:30;;;;;;;3.78;1.80;;;;;;;24.55;57.71;100516.81;5084730;28;20028;-67
2022/08/20 06:49:55;;;;;;;2.92;2.03;;;;;;;24.20;57.91;100524.25;5079334;28;20039;-67
2022/08/20 06:52:21;;;;;;;4.05;3.20;;;;;;;23.41;60.03;100533.72;5070894;28;20040;-67
2022/08/20 06:54:46;;;;;;;4.00;3.28;;;;;;;22.85;61.47;100533.22;5081387;28;20048;-67
2022/08/20 06:57:12;;;;;;;3.60;3.00;;;;;;;22.55;62.07;100532.44;5089042;28;20059;-67
2022/08/20 06:59:37;;;;;;;3.42;2.90;;;;;;;22.41;63.13;100532.66;5089645;28;20028;-66
2022/08/20 07:02:03;;;;;;;3.10;2.10;;;;;;;22.27;64.30;100539.31;5087144;28;20070;-67
2022/08/20 07:04:28;;;;;;;3.22;1.75;;;;;;;22.24;64.12;100537.88;5076614;28;20116;-67
2022/08/20 07:06:56;;;;;;;2.80;1.70;;;;;;;22.23;64.47;100536.22;5089771;28;20558;-67
2022/08/20 07:09:23;;;;;;;1.60;1.30;;;;;;;22.25;64.19;100542.22;5082460;28;20477;-67
2022/08/20 07:11:48;;;;;;;2.22;1.60;;;;;;;22.30;64.74;100546.09;5083690;28;20060;-67
2022/08/20 07:14:15;;;;;;;2.38;1.52;;;;;;;22.36;64.42;100539.81;5080799;28;20040;-67
2022/08/20 07:16:41;;;;;;;2.55;1.50;;;;;;;22.41;64.54;100543.44;5082309;28;20043;-67
2022/08/20 07:19:07;;;;;;;1.83;1.33;;;;;;;22.48;64.31;100540.66;5075207;28;20070;-67
2022/08/20 07:21:33;;;;;;;1.95;1.63;;;;;;;22.54;65.00;100533.53;5079057;28;20067;-67
2022/08/20 07:23:58;;;;;;;1.83;1.48;;;;;;;22.67;64.28;100534.16;5072951;28;20392;-67
2022/08/20 07:26:24;;;;;;;1.88;1.50;;;;;;;22.87;63.69;100533.00;5075441;28;20037;-67
2022/08/20 07:28:49;;;;;;;2.42;1.50;;;;;;;22.99;63.43;100541.13;5083082;28;20093;-66
2022/08/20 07:33:59;;;;;;;2.28;1.38;;;;;;;23.40;62.56;100537.47;5086345;28;20133;-67
2022/08/20 07:36:24;;;;;;;2.25;1.42;;;;;;;23.49;62.30;100535.25;5082440;28;20123;-67
2022/08/20 07:38:51;;;;;;;1.50;1.20;;;;;;;23.58;62.09;100533.00;5088235;28;20044;-67
2022/08/20 07:41:18;;;;;;;2.10;1.48;;;;;;;23.61;61.90;100538.72;5087895;28;20480;-67
2022/08/20 07:43:44;;;;;;;2.15;1.50;;;;;;;23.59;61.84;100538.16;5086015;28;20043;-67
2022/08/20 07:46:10;;;;;;;1.42;1.23;;;;;;;23.55;61.73;100545.09;5080855;28;20060;-68
2022/08/20 07:48:39;;;;;;;1.73;1.30;;;;;;;23.46;61.73;100544.63;5083529;28;20127;-67
2022/08/20 07:51:06;;;;;;;1.30;1.10;;;;;;;23.44;61.81;100549.44;5078545;28;20040;-67
2022/08/20 07:53:33;;;;;;;1.48;1.30;;;;;;;23.60;61.76;100549.78;5075033;28;20032;-67
2022/08/20 07:56:00;;;;;;;1.42;1.00;;;;;;;23.85;61.54;100546.81;5069007;28;20039;-67
2022/08/20 07:58:25;;;;;;;1.70;1.10;;;;;;;24.03;61.07;100556.63;5073712;28;20068;-67
2022/08/20 08:00:51;;;;;;;2.22;1.10;;;;;;;24.15;60.88;100549.31;5080572;28;20036;-67
2022/08/20 08:03:16;;;;;;;1.30;1.00;;;;;;;24.24;60.17;100557.81;5084421;28;20259;-67
2022/08/20 08:05:45;;;;;;;1.23;1.00;;;;;;;24.34;60.12;100552.63;5088542;28;20139;-67
2022/08/20 08:08:14;;;;;;;1.13;0.90;;;;;;;24.35;59.89;100549.66;5083625;28;20141;-67
2022/08/20 08:10:41;;;;;;;1.30;1.00;;;;;;;24.38;59.78;100553.75;5084307;28;20117;-67
2022/08/20 08:13:11;;;;;;;1.33;0.90;;;;;;;24.59;59.78;100560.38;5086298;28;20467;-67
2022/08/20 08:15:39;;;;;;;1.90;1.17;;;;;;;24.95;58.86;100569.91;5081390;28;20028;-67
2022/08/20 08:18:10;;;;;;;1.42;1.10;;;;;;;25.39;58.58;100571.97;5081188;28;20388;-65
2022/08/20 08:20:39;;;;;;;1.20;0.90;;;;;;;25.86;57.40;100574.22;5086369;28;20378;-67
2022/08/20 08:23:06;;;;;;;2.63;1.23;;;;;;;26.19;56.45;100562.41;5088231;28;20097;-65
2022/08/20 08:25:32;;;;;;;2.05;1.00;;;;;;;27.26;55.17;100556.31;5078689;28;20081;-67
2022/08/20 08:27:59;;;;;;;;;;;;;;;28.14;51.90;100556.47;5087359;28;20032;-65
2022/08/20 08:30:25;;;;;;;;;;;;;;;29.22;51.11;100559.25;5081793;28;20146;-67
2022/08/20 08:35:37;;;;;;;2.50;1.70;;;;;;;29.80;47.69;100562.41;5085936;28;20115;-67
2022/08/20 08:38:02;;;;;;;;;;;;;;;29.36;46.71;100559.50;5079657;28;20106;-68
2022/08/20 08:40:29;;;;;;;1.70;1.40;;;;;;;29.24;47.95;100554.38;5076893;28;19920;-66
2022/08/20 08:42:56;;;;;;;;;;;;;;;28.97;47.57;100560.91;5084629;28;20093;-66
2022/08/20 08:45:22;;;;;;;;;;;;;;;28.53;48.49;100550.59;5064932;28;19916;-66
2022/08/20 08:47:48;;;;;;;2.40;1.45;;;;;;;28.35;49.14;100551.06;5082226;28;19977;-66
2022/08/20 08:50:22;;;;;;;;;;;;;;;28.07;49.21;100553.19;5084630;28;20059;-66
2022/08/20 08:52:49;;;;;;;;;;;;;;;27.56;49.90;100552.16;5076410;28;19920;-66
2022/08/20 08:55:17;;;;;;;2.28;1.80;;;;;;;26.77;51.68;100551.06;5084023;28;19931;-66
2022/08/20 08:57:42;;;;;;;2.20;1.73;;;;;;;26.35;52.71;100560.69;5082223;28;20038;-66
2022/08/20 09:00:14;;;;;;;2.90;2.20;;;;;;;25.96;53.47;100547.28;5085153;28;20048;-67
2022/08/20 09:02:51;;;;;;;2.30;1.67;;;;;;;25.66;54.37;100547.69;5081487;28;20044;-66
2022/08/20 09:05:22;;;;;;;2.03;1.50;;;;;;;25.51;54.39;100550.22;5082118;28;20028;-66
2022/08/20 09:07:50;;;;;;;2.80;2.10;;;;;;;25.37;55.27;100558.69;5081820;28;20036;-66
2022/08/20 09:10:16;;;;;;;3.22;1.95;;;;;;;25.13;55.85;100554.50;5083583;28;20036;-66
2022/08/20 09:12:43;;;;;;;2.80;2.00;;;;;;;25.11;55.90;100560.16;5085741;28;20024;-66
2022/08/20 09:15:09;;;;;;;3.47;1.88;;;;;;;25.05;56.23;100563.88;5083067;28;20494;-66
2022/08/20 09:17:34;;;;;;;3.15;2.05;;;;;;;24.57;58.14;100563.34;5083159;28;20121;-66
2022/08/20 09:19:59;;;;;;;3.45;1.83;;;;;;;23.97;60.14;100557.59;5083291;28;20048;-66
2022/08/20 09:22:24;;;;;;;3.10;1.83;;;;;;;23.49;62.31;100563.03;5084634;28;20032;-66
2022/08/20 09:24:50;;;;;;;3.20;1.80;;;;;;;23.13;63.77;100561.41;5082010;28;20114;-66
2022/08/20 09:27:16;;;;;;;2.25;1.80;;;;;;;22.91;64.43;100561.13;5081153;28;20044;-66
2022/08/20 09:29:41;;;;;;;2.83;1.80;;;;;;;22.69;66.06;100559.00;5080435;28;20496;-66
2022/08/20 09:32:12;;;;;;;2.97;2.20;;;;;;;22.45;66.62;100558.13;5085798;28;20040;-67
2022/08/20 09:34:41;;;;;;;3.65;2.47;;;;;;;22.20;69.30;100571.72;5067429;28;20785;-66
2022/08/20 09:37:06;;;;;;;3.03;2.55;;;;;;;22.17;69.50;100571.31;5083605;28;20047;-66
2022/08/20 09:39:31;;;;;;;3.45;1.90;;;;;;;22.47;68.40;100572.16;5081855;28;20385;-68
2022/08/20 09:42:15;;;;;;;3.23;2.33;;;;;;;22.93;68.92;100567.13;5083936;28;20039;-67
2022/08/20 09:44:41;;;;;;;3.03;2.30;;;;;;;23.25;67.70;100569.53;5081803;28;20278;-66
2022/08/20 09:47:07;;;;;;;3.92;2.50;;;;;;;23.49;67.38;100576.53;5083734;28;20032;-66
2022/08/20 09:49:33;;;;;;;3.97;1.90;;;;;;;23.54;67.30;100571.25;5084080;28;20119;-66
2022/08/20 09:51:59;;;;;;;3.35;2.30;;;;;;;23.50;67.70;100572.81;5082149;28;20067;-66
2022/08/20 09:54:28;;;;;;;3.20;2.13;;;;;;;23.20;68.29;100570.22;5084426;28;20032;-66
2022/08/20 09:56:56;;;;;;;3.78;2.65;;;;;;;22.89;68.59;100564.06;5082311;28;20043;-66
2022/08/20 09:59:21;;;;;;;2.95;2.10;;;;;;;22.70;68.72;100565.19;5080242;28;20035;-66
2022/08/20 10:01:46;;;;;;;2.85;2.03;;;;;;;22.33;69.69;100570.69;5083072;28;20028;-65
2022/08/20 10:04:12;;;;;;;3.60;2.47;;;;;;;21.94;71.80;100566.63;5082193;28;20104;-66
2022/08/20 10:06:40;;;;;;;4.00;2.63;;;;;;;21.77;72.15;100561.84;5080423;28;20035;-66
2022/08/20 10:09:05;;;;;;;3.05;2.38;;;;;;;21.63;73.15;100554.97;5087563;28;20110;-66
2022/08/20 10:11:31;;;;;;;2.80;2.08;;;;;;;21.55;73.96;100563.34;5071400;28;20063;-67
2022/08/20 10:13:56;;;;;;;3.03;2.20;;;;;;;21.54;74.03;100559.81;5085392;28;20036;-66
2022/08/20 10:16:21;;;;;;;2.42;1.85;;;;;;;21.66;74.39;100561.78;5085738;28;20039;-67
2022/08/20 10:18:49;;;;;;;2.55;1.80;;;;;;;21.97;73.29;100558.91;5084531;28;20042;-68
2022/08/20 10:21:15;;;;;;;3.05;2.10;;;;;;;22.05;74.21;100560.50;5083430;28;20036;-67
2022/08/20 10:23:41;;;;;;;4.05;2.60;;;;;;;21.99;75.33;100551.44;5067905;28;20036;-67
2022/08/20 10:26:08;;;;;;;2.95;1.90;;;;;;;22.37;74.62;100542.25;5082152;28;20097;-68
2022/08/20 10:28:34;;;;;;;4.97;2.30;;;;;;;22.89;73.98;100542.50;5079746;28;20131;-67
2022/08/20 10:30:59;;;;;;;3.00;1.95;;;;;;;23.21;72.05;100538.66;5082393;28;20032;-67
2022/08/20 10:33:25;;;;;;;3.78;1.83;;;;;;;23.60;71.09;100547.09;5066343;28;20036;-67
2022/08/20 10:35:50;;;;;;;3.10;2.00;;;;;;;24.02;70.38;100538.78;5090381;28;20500;-67
2022/08/20 10:38:16;;;;;;;1.85;1.60;;;;;;;24.54;68.96;100544.09;5075477;28;20693;-67
2022/08/20 10:40:41;;;;;;;2.83;2.20;;;;;;;25.19;66.60;100545.41;5082567;28;20044;-67
2022/08/20 10:43:06;;;;;;;;;;;;;;;26.91;62.09;100536.00;5084611;28;20040;-67
2022/08/20 10:45:32;;;;;;;2.83;2.23;;;;;;;28.43;58.03;100545.09;5083322;28;19920;-67
2022/08/20 10:47:58;;;;;;;2.00;1.50;;;;;;;29.55;53.94;100541.47;5083917;28;20032;-67
2022/08/20 10:50:24;;;;;;;2.72;1.50;;;;;;;29.39;54.44;100538.00;5081550;28;20060;-67
2022/08/20 10:52:49;;;;;;;1.73;1.25;;;;;;;29.59;52.93;100539.81;5077137;28;20143;-67
2022/08/20 10:55:15;;;;;;;;;;;;;;;30.88;48.72;100535.25;5085218;28;20077;-66
2022/08/20 10:57:41;;;;;;;2.03;1.20;;;;;;;31.75;47.83;100530.78;5083055;28;20525;-67
2022/08/20 11:00:09;;;;;;;1.30;0.90;;;;;;;34.03;44.85;100526.22;5081896;28;20028;-68
2022/08/20 11:02:34;;;;;;;1.23;0.90;;;;;;;34.80;44.10;100532.66;5083067;28;20097;-67
2022/08/20 11:04:59;;;;;;;1.75;0.85;;;;;;;36.20;41.05;100519.31;5085571;28;20028;-67
2022/08/20 11:07:37;;;;;;;1.33;0.90;;;;;;;36.70;36.84;100527.06;5087715;28;20043;-67
2022/08/20 11:10:05;;;;;;;1.27;0.82;;;;;;;37.58;36.55;100522.81;5086458;28;20305;-68
2022/08/20 11:12:30;;;;;;;1.90;0.88;;;;;;;38.47;34.66;100530.91;5086841;28;20040;-67
2022/08/20 11:14:56;;;;;;;0.57;0.57;;;;;;;38.10;35.05;100528.00;5086897;28;20523;-67
2022/08/20 11:17:29;;;;;;;0.80;0.63;;;;;;;37.40;35.80;100520.16;5068657;28;20298;-67
2022/08/20 11:19:56;;;;;;;1.05;0.70;;;;;;;36.98;36.21;100516.44;5086013;28;20040;-67
2022/08/20 11:22:22;;;;;;;0.90;0.60;;;;;;;37.13;37.11;100512.34;5085317;28;20048;-67
2022/08/20 11:24:48;;;;;;;1.48;0.88;;;;;;;37.66;32.87;100516.44;5086698;28;20074;-67
2022/08/20 11:27:35;;;;;;;1.58;0.90;;;;;;;37.54;32.53;100510.84;5084801;28;20552;-67
2022/08/20 11:30:01;;;;;;;1.20;0.82;;;;;;;38.18;31.91;100515.25;5086935;28;20028;-66
2022/08/20 11:32:26;;;;;;;0.80;0.70;;;;;;;37.65;32.05;100509.31;5084137;28;20032;-66
2022/08/20 11:34:52;;;;;;;0.80;0.65;;;;;;;37.64;31.21;100501.34;5085362;28;20035;-66
2022/08/20 11:37:20;;;;;;;1.23;0.80;;;;;;;37.80;31.84;100508.69;5083149;28;20036;-67